Time;durP1;ratioP1;P1;durP2;ratioP2;P2;SDS_P1;SDS_P2;PMS_P1;PMS_P2;Temp;Humidity;BMP_temperature;BMP_pressure;BME280_temperature;BME280_humidity;BME280_pressure;Samples;Min_cycle;Max_cycle;Signal;HPM_P1;HPM_P2
2023/07/25 00:02:29;;;;;;;2.50;0.68;;;24.50;60.80;;;;;;10452654;28;20107;-39
2023/07/25 00:07:31;;;;;;;;;;;24.30;61.40;;;;;;10456142;28;20072;-39
2023/07/25 00:12:35;;;;;;;2.30;0.68;;;24.40;61.50;;;;;;10458102;28;19974;-39
2023/07/25 00:17:37;;;;;;;0.60;0.40;;;24.50;60.90;;;;;;10454939;28;20568;-39
2023/07/25 00:22:39;;;;;;;2.60;0.57;;;24.50;60.70;;;;;;10454848;28;20512;-39
2023/07/25 00:27:42;;;;;;;;;;;24.40;61.60;;;;;;10455843;28;20106;-40
2023/07/25 00:32:43;;;;;;;2.95;0.80;;;24.50;60.80;;;;;;10454745;28;20028;-45
2023/07/25 00:37:45;;;;;;;;;;;24.50;60.80;;;;;;10454800;28;20139;-40
2023/07/25 00:42:54;;;;;;;2.50;0.57;;;24.50;60.70;;;;;;10449152;28;20339;-40
2023/07/25 00:47:56;;;;;;;2.17;0.55;;;24.30;61.00;;;;;;10448330;28;20056;-40
2023/07/25 00:52:58;;;;;;;;;;;24.40;61.40;;;;;;10456879;28;20076;-40
2023/07/25 00:58:02;;;;;;;1.08;0.63;;;24.40;60.90;;;;;;10447603;28;19921;-40
2023/07/25 01:03:04;;;;;;;1.77;0.57;;;24.40;61.00;;;;;;10451274;28;20053;-40
2023/07/25 01:08:06;;;;;;;1.27;0.50;;;24.40;60.80;;;;;;10451852;28;20106;-40
2023/07/25 01:13:09;;;;;;;2.95;0.52;;;24.30;60.80;;;;;;10451128;28;20057;-40
2023/07/25 01:18:12;;;;;;;1.80;0.63;;;24.30;60.80;;;;;;10445619;28;20090;-40
2023/07/25 01:23:14;;;;;;;2.25;0.75;;;24.30;60.90;;;;;;10449855;28;20136;-41
2023/07/25 01:28:17;;;;;;;4.13;0.77;;;24.30;61.10;;;;;;10448674;28;20126;-40
2023/07/25 01:33:19;;;;;;;1.88;0.43;;;24.30;61.00;;;;;;10451778;28;20580;-40
2023/07/25 01:38:21;;;;;;;;;;;24.30;61.00;;;;;;10452032;28;20161;-40
2023/07/25 01:43:24;;;;;;;3.97;0.75;;;24.30;61.10;;;;;;10455584;28;19964;-39
2023/07/25 01:48:26;;;;;;;0.65;0.52;;;24.20;61.10;;;;;;10459157;28;20049;-40
2023/07/25 01:53:27;;;;;;;;;;;24.20;61.00;;;;;;10462208;28;20047;-39
2023/07/25 01:58:30;;;;;;;1.13;0.40;;;24.30;61.00;;;;;;10460203;28;20376;-40
2023/07/25 02:03:32;;;;;;;2.97;0.77;;;24.20;61.60;;;;;;10455297;28;20397;-39
2023/07/25 02:08:34;;;;;;;;;;;24.20;61.10;;;;;;10456728;28;20041;-39
2023/07/25 02:13:38;;;;;;;0.68;0.47;;;24.20;61.10;;;;;;10452297;28;19967;-41
2023/07/25 02:18:40;;;;;;;3.15;0.50;;;24.00;61.50;;;;;;10455780;28;20490;-38
2023/07/25 02:23:41;;;;;;;3.50;0.70;;;24.10;61.10;;;;;;10448145;28;20091;-40
2023/07/25 02:28:44;;;;;;;;;;;24.10;61.20;;;;;;10449382;28;20094;-41
2023/07/25 02:33:46;;;;;;;3.35;0.50;;;24.10;61.30;;;;;;10448949;28;20020;-40
2023/07/25 02:38:48;;;;;;;;;;;23.70;61.60;;;;;;10450266;28;20142;-41
2023/07/25 02:43:51;;;;;;;0.55;0.40;;;23.50;61.90;;;;;;10449592;28;19924;-41
2023/07/25 02:48:53;;;;;;;1.83;0.80;;;23.40;64.00;;;;;;10450005;28;20468;-40
2023/07/25 02:53:55;;;;;;;;;;;23.90;62.10;;;;;;10459905;28;20144;-40
2023/07/25 03:15:31;;;;;;;3.22;0.60;;;23.90;61.40;;;;;;10518302;27;20533;-40
2023/07/25 03:20:33;;;;;;;1.77;0.60;;;23.30;63.30;;;;;;10482404;28;20105;-40
2023/07/25 03:25:35;;;;;;;1.42;0.63;;;23.70;62.80;;;;;;10480595;28;20037;-40
2023/07/25 03:30:38;;;;;;;;;;;23.80;62.20;;;;;;10480576;28;20080;-40
2023/07/25 03:35:41;;;;;;;5.05;0.60;;;23.70;62.10;;;;;;10465835;28;19957;-40
2023/07/25 03:40:43;;;;;;;1.42;0.40;;;23.40;62.60;;;;;;10487727;28;20045;-38
2023/07/25 03:45:46;;;;;;;;;;;23.60;62.80;;;;;;10479431;28;20139;-39
2023/07/25 03:50:48;;;;;;;1.00;0.45;;;23.80;62.00;;;;;;10482366;28;19991;-40
2023/07/25 03:55:49;;;;;;;;;;;23.90;61.80;;;;;;10489288;28;20107;-40
2023/07/25 04:00:52;;;;;;;3.27;0.67;;;23.70;62.30;;;;;;10486922;28;20019;-40
2023/07/25 04:05:54;;;;;;;3.22;0.90;;;23.80;62.00;;;;;;10477590;28;20559;-38
2023/07/25 04:10:56;;;;;;;1.58;0.80;;;23.70;61.50;;;;;;10475113;28;20088;-41
2023/07/25 04:15:59;;;;;;;;;;;23.80;62.00;;;;;;10473129;28;20041;-40
2023/07/25 04:21:01;;;;;;;4.97;0.65;;;23.80;61.90;;;;;;10473037;28;20389;-40
2023/07/25 04:26:03;;;;;;;;;;;23.90;61.60;;;;;;10454615;28;20053;-39
2023/07/25 04:31:06;;;;;;;6.00;0.50;;;23.90;61.50;;;;;;10449776;28;19978;-39
2023/07/25 04:36:08;;;;;;;3.05;0.52;;;23.50;62.80;;;;;;10442208;28;20051;-41
2023/07/25 04:41:10;;;;;;;2.42;0.70;;;23.40;63.00;;;;;;10446491;28;20128;-39
2023/07/25 04:46:13;;;;;;;1.48;0.65;;;23.60;62.50;;;;;;10449905;28;20064;-40
2023/07/25 04:51:15;;;;;;;4.32;0.45;;;23.40;63.10;;;;;;10452858;28;20150;-39
2023/07/25 04:56:16;;;;;;;;;;;23.70;61.70;;;;;;10441438;28;20076;-41
2023/07/25 05:01:20;;;;;;;0.95;0.40;;;23.70;61.70;;;;;;10436909;28;20333;-41
2023/07/25 05:06:21;;;;;;;2.25;0.57;;;23.30;63.10;;;;;;10430135;28;20049;-41
2023/07/25 05:11:23;;;;;;;;;;;23.70;61.50;;;;;;10438539;28;20148;-40
2023/07/25 05:16:26;;;;;;;2.63;0.57;;;22.50;64.10;;;;;;10430111;28;20463;-39
2023/07/25 05:21:28;;;;;;;2.75;0.52;;;23.60;62.00;;;;;;10441895;28;20048;-40
2023/07/25 05:26:30;;;;;;;1.42;0.38;;;23.40;62.40;;;;;;10448065;28;20095;-40
2023/07/25 05:31:33;;;;;;;1.58;0.60;;;23.70;61.40;;;;;;10445797;28;20053;-40
2023/07/25 05:36:35;;;;;;;1.85;0.98;;;23.70;61.00;;;;;;10436153;28;20555;-40
2023/07/25 05:41:37;;;;;;;;;;;23.60;61.50;;;;;;10424432;28;20129;-40
2023/07/25 05:46:41;;;;;;;2.28;0.40;;;23.60;61.60;;;;;;10442179;28;19921;-41
2023/07/25 05:51:42;;;;;;;3.80;0.88;;;23.60;61.60;;;;;;10440297;28;20083;-40
2023/07/25 05:56:44;;;;;;;1.60;0.43;;;23.10;60.60;;;;;;10432801;28;20052;-41
2023/07/25 06:01:47;;;;;;;;;;;23.70;61.10;;;;;;10434820;28;20490;-40
2023/07/25 06:06:50;;;;;;;2.05;0.50;;;23.60;61.00;;;;;;10432622;28;19927;-40
2023/07/25 06:11:53;;;;;;;6.38;0.60;;;23.60;60.90;;;;;;10442877;28;20092;-41
2023/07/25 06:16:56;;;;;;;2.35;0.63;;;23.30;62.00;;;;;;10442053;28;20049;-40
2023/07/25 06:21:58;;;;;;;2.25;0.50;;;23.50;59.70;;;;;;10435652;28;20071;-41
2023/07/25 06:26:59;;;;;;;;;;;22.70;62.00;;;;;;10434717;28;20053;-40
2023/07/25 06:32:02;;;;;;;2.30;0.57;;;22.70;64.00;;;;;;10444459;28;20007;-40
2023/07/25 06:37:05;;;;;;;4.20;0.65;;;23.40;61.40;;;;;;10441481;28;20080;-40
2023/07/25 06:42:07;;;;;;;2.08;0.70;;;22.60;64.30;;;;;;10430515;28;20076;-38
2023/07/25 06:47:11;;;;;;;1.52;0.45;;;22.30;65.80;;;;;;10428947;28;20037;-39
2023/07/25 06:52:13;;;;;;;3.78;0.88;;;23.10;64.40;;;;;;10441258;28;20136;-37
2023/07/25 06:57:14;;;;;;;3.63;0.70;;;23.50;60.90;;;;;;10445504;28;20073;-40
2023/07/25 07:02:18;;;;;;;5.65;0.60;;;23.20;61.80;;;;;;10437279;28;20054;-40
2023/07/25 07:07:19;;;;;;;2.30;1.45;;;23.30;62.00;;;;;;10445176;28;20049;-40
2023/07/25 07:12:21;;;;;;;4.13;0.73;;;23.40;61.60;;;;;;10460576;28;20050;-40
2023/07/25 07:17:24;;;;;;;;;;;23.60;61.10;;;;;;10438097;28;20044;-41
2023/07/25 07:22:26;;;;;;;5.05;0.60;;;23.40;62.00;;;;;;10445311;28;20376;-41
2023/07/25 07:27:28;;;;;;;7.40;1.00;;;23.60;60.60;;;;;;10449830;28;20076;-40
2023/07/25 07:32:31;;;;;;;5.20;0.52;;;22.10;62.50;;;;;;10434094;28;20155;-39
2023/07/25 07:37:33;;;;;;;7.95;0.60;;;22.70;61.60;;;;;;10441659;28;20037;-39
2023/07/25 07:42:35;;;;;;;3.20;0.43;;;22.50;65.20;;;;;;10443809;28;20132;-40
2023/07/25 07:47:38;;;;;;;5.55;0.60;;;23.20;60.90;;;;;;10442237;28;20056;-39
2023/07/25 07:52:41;;;;;;;2.97;0.50;;;21.60;65.30;;;;;;10446560;28;20149;-39
2023/07/25 07:57:44;;;;;;;2.08;0.40;;;21.10;64.90;;;;;;10449099;28;20053;-39
2023/07/25 08:02:48;;;;;;;3.65;0.52;;;21.00;67.30;;;;;;10459714;28;20165;-40
2023/07/25 08:07:50;;;;;;;3.55;0.40;;;21.60;69.60;;;;;;10456182;28;20065;-39
2023/07/25 08:12:52;;;;;;;2.58;0.65;;;23.30;62.30;;;;;;10446918;28;20160;-38
2023/07/25 08:17:55;;;;;;;1.48;0.30;;;22.10;64.40;;;;;;10446916;28;20171;-39
2023/07/25 08:22:57;;;;;;;4.68;0.73;;;22.80;63.40;;;;;;10462413;28;20052;-40
2023/07/25 08:27:59;;;;;;;1.20;0.40;;;22.20;63.30;;;;;;10457715;28;20063;-38
2023/07/25 08:33:03;;;;;;;4.70;1.00;;;22.00;64.90;;;;;;10452955;28;20061;-40
2023/07/25 08:38:04;;;;;;;2.78;0.77;;;21.80;61.70;;;;;;10452467;28;20382;-39
2023/07/25 08:43:11;;;;;;;3.33;0.60;;;22.60;63.80;;;;;;10436331;28;20041;-38
2023/07/25 08:48:17;;;;;;;7.22;0.35;;;21.90;59.00;;;;;;10460932;28;20044;-39
2023/07/25 08:53:21;;;;;;;1.02;0.47;;;21.80;60.50;;;;;;10444565;28;20056;-38
2023/07/25 08:58:25;;;;;;;3.55;0.40;;;23.30;61.00;;;;;;10448140;28;20692;-39
2023/07/25 09:03:29;;;;;;;0.85;0.32;;;22.90;59.90;;;;;;10435661;28;20478;-37
2023/07/25 09:08:31;;;;;;;2.45;0.30;;;22.70;60.70;;;;;;10444090;28;20080;-39
2023/07/25 09:13:33;;;;;;;2.60;0.55;;;21.90;64.10;;;;;;10449155;28;20079;-37
2023/07/25 09:18:36;;;;;;;0.77;0.30;;;22.40;62.60;;;;;;10458134;28;20053;-39
2023/07/25 09:23:40;;;;;;;1.92;0.35;;;22.30;57.40;;;;;;10445554;28;20297;-39
2023/07/25 09:28:49;;;;;;;3.20;0.43;;;22.00;60.50;;;;;;10462536;28;20076;-40
2023/07/25 09:33:53;;;;;;;2.55;0.40;;;22.40;64.10;;;;;;10452800;28;20068;-40
2023/07/25 09:38:57;;;;;;;3.00;0.80;;;21.90;65.10;;;;;;10429277;28;20073;-40
2023/07/25 09:44:02;;;;;;;7.90;0.30;;;21.50;64.90;;;;;;10452169;28;20056;-40
2023/07/25 09:49:05;;;;;;;1.63;0.40;;;22.30;64.20;;;;;;10446803;28;20133;-39
2023/07/25 09:54:07;;;;;;;2.22;0.47;;;23.50;58.90;;;;;;10443992;28;20080;-41
2023/07/25 09:59:10;;;;;;;4.03;0.50;;;22.80;61.50;;;;;;10453129;28;20152;-40
2023/07/25 10:04:15;;;;;;;2.40;0.30;;;22.90;56.00;;;;;;10421234;28;20064;-39
2023/07/25 10:09:18;;;;;;;2.58;0.50;;;23.10;60.60;;;;;;10421128;28;20417;-40
2023/07/25 10:14:20;;;;;;;1.50;0.32;;;22.10;59.20;;;;;;10441756;28;20129;-40
2023/07/25 10:19:24;;;;;;;1.85;0.60;;;22.90;59.70;;;;;;10426626;28;20068;-41
2023/07/25 10:24:34;;;;;;;0.70;0.30;;;23.30;60.20;;;;;;10432565;28;20080;-40
2023/07/25 10:29:37;;;;;;;4.63;0.40;;;23.10;56.30;;;;;;10445946;28;20067;-40
2023/07/25 10:34:51;;;;;;;1.33;0.30;;;22.20;59.80;;;;;;10437329;28;20072;-39
2023/07/25 10:40:21;;;;;;;5.13;0.55;;;24.10;57.80;;;;;;10449337;28;20049;-40
2023/07/25 10:45:41;;;;;;;3.10;0.50;;;22.10;59.20;;;;;;10442809;28;20069;-41
2023/07/25 10:50:54;;;;;;;4.35;0.65;;;23.00;58.60;;;;;;10444715;28;20058;-40
2023/07/25 10:56:17;;;;;;;2.70;0.50;;;23.70;58.80;;;;;;10454689;28;20474;-40
2023/07/25 11:01:33;;;;;;;0.90;0.30;;;21.10;61.80;;;;;;10440345;28;20611;-40
2023/07/25 11:06:42;;;;;;;1.27;0.20;;;22.00;64.10;;;;;;10455948;28;20052;-41
2023/07/25 11:11:48;;;;;;;3.40;0.50;;;21.60;61.20;;;;;;10470017;28;20118;-36
2023/07/25 11:16:52;;;;;;;3.55;0.38;;;20.70;62.00;;;;;;10450333;28;20055;-40
2023/07/25 11:21:56;;;;;;;1.63;0.30;;;22.10;61.40;;;;;;10456937;28;20071;-40
2023/07/25 11:27:02;;;;;;;1.13;0.38;;;22.10;60.00;;;;;;10451472;28;20041;-41
2023/07/25 11:32:05;;;;;;;3.58;0.40;;;22.60;56.30;;;;;;10445285;28;20076;-40
2023/07/25 11:37:12;;;;;;;4.05;0.43;;;22.20;57.80;;;;;;10457890;28;20072;-41
2023/07/25 11:42:15;;;;;;;1.17;0.40;;;22.90;60.40;;;;;;10463686;28;20056;-40
2023/07/25 11:47:17;;;;;;;2.15;0.22;;;23.60;57.90;;;;;;10450763;28;20735;-40
2023/07/25 11:52:21;;;;;;;;;;;22.50;56.60;;;;;;10452639;28;20049;-40
2023/07/25 11:57:23;;;;;;;0.82;0.30;;;21.90;64.60;;;;;;10447721;28;19925;-41
2023/07/25 12:02:26;;;;;;;3.53;0.40;;;23.00;61.90;;;;;;10445036;28;20445;-40
2023/07/25 12:07:48;;;;;;;2.85;0.30;;;22.10;60.10;;;;;;10446933;28;20068;-40
2023/07/25 12:12:50;;;;;;;1.17;0.32;;;23.30;59.00;;;;;;10441083;28;20243;-39
2023/07/25 12:17:52;;;;;;;;;;;22.50;61.90;;;;;;10447633;28;20394;-40
2023/07/25 12:23:06;;;;;;;3.22;0.30;;;22.90;58.50;;;;;;10450366;28;19986;-40
2023/07/25 12:28:08;;;;;;;2.35;0.40;;;21.70;61.60;;;;;;10431325;28;20133;-38
2023/07/25 12:33:09;;;;;;;0.40;0.30;;;21.70;57.80;;;;;;10468641;28;20059;-40
2023/07/25 12:38:13;;;;;;;0.93;0.43;;;21.80;60.60;;;;;;10449583;28;20088;-39
2023/07/25 12:43:15;;;;;;;12.15;0.70;;;22.00;59.00;;;;;;10453219;28;20041;-40
2023/07/25 12:48:17;;;;;;;1.20;0.40;;;23.20;58.00;;;;;;10438299;28;20049;-39
2023/07/25 12:53:20;;;;;;;0.55;0.40;;;23.10;58.40;;;;;;10430032;28;20518;-39
2023/07/25 12:58:23;;;;;;;2.63;0.30;;;23.70;56.50;;;;;;10450781;28;20065;-40
2023/07/25 13:03:26;;;;;;;2.03;0.52;;;22.80;58.50;;;;;;10457631;28;20549;-40
2023/07/25 13:08:29;;;;;;;2.03;0.30;;;23.00;59.30;;;;;;10446611;28;20051;-39
2023/07/25 13:13:31;;;;;;;4.40;0.50;;;23.10;59.70;;;;;;10447747;28;20506;-40
2023/07/25 13:18:33;;;;;;;;;;;23.50;56.10;;;;;;10450969;28;20103;-39
2023/07/25 13:23:36;;;;;;;0.20;0.20;;;24.10;58.80;;;;;;10449526;28;20004;-39
2023/07/25 13:28:38;;;;;;;1.55;0.30;;;23.00;57.20;;;;;;10453407;28;20052;-39
2023/07/25 13:33:40;;;;;;;0.98;0.63;;;24.20;56.60;;;;;;10420493;28;20068;-38
2023/07/25 13:38:43;;;;;;;;;;;23.40;56.80;;;;;;10422581;28;20041;-38
2023/07/25 13:43:45;;;;;;;3.15;0.60;;;24.00;56.00;;;;;;10445872;28;19996;-37
2023/07/25 13:48:47;;;;;;;0.30;0.20;;;23.90;58.30;;;;;;10446767;28;20045;-40
2023/07/25 13:53:51;;;;;;;2.28;0.57;;;24.80;57.90;;;;;;10431356;28;20107;-39
2023/07/25 13:58:53;;;;;;;1.33;0.40;;;24.40;53.80;;;;;;10438740;28;20731;-39
2023/07/25 14:03:55;;;;;;;;;;;24.30;55.40;;;;;;10453905;28;20048;-40
2023/07/25 14:08:58;;;;;;;1.05;0.25;;;24.00;55.40;;;;;;10434632;28;19977;-40
2023/07/25 14:14:00;;;;;;;0.50;0.20;;;25.00;56.90;;;;;;10430730;28;20505;-39
2023/07/25 14:19:02;;;;;;;2.55;0.30;;;24.30;55.60;;;;;;10443525;28;20480;-40
2023/07/25 14:24:06;;;;;;;0.45;0.35;;;25.40;49.70;;;;;;10439466;28;20106;-40
2023/07/25 14:29:08;;;;;;;5.03;0.47;;;25.40;54.10;;;;;;10419330;28;20059;-38
2023/07/25 14:34:10;;;;;;;;;;;24.80;52.50;;;;;;10437638;28;20095;-38
2023/07/25 14:39:13;;;;;;;4.07;0.40;;;26.00;55.00;;;;;;10445655;28;19924;-40
2023/07/25 14:44:15;;;;;;;0.25;0.15;;;25.10;54.30;;;;;;10454090;28;20048;-41
2023/07/25 14:49:17;;;;;;;2.38;0.40;;;26.30;53.50;;;;;;10445317;28;20051;-41
2023/07/25 14:54:20;;;;;;;0.55;0.30;;;26.40;54.00;;;;;;10446919;28;20449;-41
2023/07/25 14:59:22;;;;;;;1.00;0.40;;;26.40;54.90;;;;;;10450760;28;20753;-41
2023/07/25 15:04:24;;;;;;;3.53;0.65;;;26.90;53.60;;;;;;10442076;28;20048;-40
2023/07/25 15:09:27;;;;;;;2.45;0.70;;;26.40;55.90;;;;;;10439463;28;20542;-41
2023/07/25 15:14:29;;;;;;;1.33;0.68;;;26.40;56.10;;;;;;10440550;28;20421;-41
2023/07/25 15:19:30;;;;;;;0.57;0.50;;;26.90;54.80;;;;;;10439058;28;20045;-41
2023/07/25 15:24:34;;;;;;;1.17;0.50;;;25.60;59.00;;;;;;10458740;28;20049;-41
2023/07/25 15:29:36;;;;;;;2.67;0.70;;;26.00;52.40;;;;;;10443660;28;20063;-41
2023/07/25 15:34:38;;;;;;;1.08;0.40;;;24.70;58.00;;;;;;10438269;28;20565;-40
2023/07/25 15:39:41;;;;;;;3.60;0.52;;;25.30;60.50;;;;;;10442670;28;20053;-40
2023/07/25 15:44:43;;;;;;;2.35;0.80;;;25.10;61.90;;;;;;10443424;28;20076;-40
2023/07/25 15:49:45;;;;;;;1.50;0.52;;;25.00;55.00;;;;;;10440308;28;20548;-39
2023/07/25 15:54:49;;;;;;;2.17;0.40;;;24.30;56.10;;;;;;10445443;28;20060;-42
2023/07/25 15:59:51;;;;;;;3.55;0.50;;;25.80;57.80;;;;;;10443195;28;20130;-41
2023/07/25 16:04:53;;;;;;;2.35;0.50;;;25.00;53.20;;;;;;10437007;28;20072;-38
2023/07/25 16:09:56;;;;;;;1.95;0.43;;;25.60;55.40;;;;;;10445156;28;20492;-40
2023/07/25 16:14:58;;;;;;;2.00;0.50;;;25.50;58.40;;;;;;10445023;28;20099;-40
2023/07/25 16:20:00;;;;;;;0.40;0.40;;;25.20;58.30;;;;;;10442452;28;20061;-40
2023/07/25 16:25:04;;;;;;;3.03;0.63;;;26.10;52.90;;;;;;10446383;28;20461;-40
2023/07/25 16:30:07;;;;;;;3.22;0.50;;;25.70;55.10;;;;;;10452126;28;20087;-40
2023/07/25 16:35:11;;;;;;;2.78;1.05;;;25.50;55.30;;;;;;10444319;28;20478;-40
2023/07/25 16:40:14;;;;;;;7.78;0.60;;;25.30;55.80;;;;;;10448760;28;20080;-39
2023/07/25 16:45:16;;;;;;;0.70;0.38;;;25.70;56.00;;;;;;10450296;28;20037;-39
2023/07/25 16:50:18;;;;;;;7.68;0.73;;;25.90;54.60;;;;;;10441498;28;20628;-40
2023/07/25 16:55:21;;;;;;;0.98;0.50;;;26.60;54.20;;;;;;10431439;28;20061;-39
2023/07/25 17:00:23;;;;;;;0.70;0.50;;;26.10;54.50;;;;;;10443860;28;20076;-40
2023/07/25 17:05:25;;;;;;;3.20;0.85;;;25.80;53.80;;;;;;10429829;28;20060;-39
2023/07/25 17:10:28;;;;;;;2.55;0.65;;;25.00;56.40;;;;;;10442180;28;20040;-40
2023/07/25 17:15:30;;;;;;;2.20;0.75;;;25.10;49.10;;;;;;10438304;28;20493;-39
2023/07/25 17:20:32;;;;;;;0.82;0.40;;;25.90;54.00;;;;;;10431555;28;20068;-40
2023/07/25 17:25:38;;;;;;;5.03;0.63;;;25.90;52.00;;;;;;10443375;28;20090;-40
2023/07/25 17:30:41;;;;;;;1.70;0.60;;;23.70;51.70;;;;;;10437030;28;20132;-41
2023/07/25 17:35:43;;;;;;;3.58;0.50;;;26.40;54.00;;;;;;10441827;28;20053;-41
2023/07/25 17:40:47;;;;;;;2.38;0.45;;;25.80;50.50;;;;;;10443396;28;20053;-41
2023/07/25 17:45:49;;;;;;;3.00;0.55;;;25.30;55.40;;;;;;10441987;28;20504;-41
2023/07/25 17:50:51;;;;;;;3.20;0.63;;;25.50;55.00;;;;;;10444692;28;20045;-40
2023/07/25 17:55:54;;;;;;;0.85;0.47;;;26.70;52.90;;;;;;10437124;28;20446;-40
2023/07/25 18:00:56;;;;;;;1.20;0.50;;;25.90;52.40;;;;;;10440008;28;20049;-40
2023/07/25 18:05:58;;;;;;;0.98;0.40;;;26.10;53.50;;;;;;10440293;28;20049;-39
2023/07/25 18:11:02;;;;;;;1.15;0.50;;;25.60;55.10;;;;;;10441779;28;20056;-40
2023/07/25 18:16:04;;;;;;;1.70;0.40;;;26.10;53.30;;;;;;10434731;28;20118;-41
2023/07/25 18:21:05;;;;;;;2.45;0.50;;;25.70;55.20;;;;;;10447679;28;20053;-41
2023/07/25 18:26:10;;;;;;;1.02;0.47;;;25.20;54.50;;;;;;10435878;28;20051;-41
2023/07/25 18:31:12;;;;;;;3.10;0.80;;;24.60;56.00;;;;;;10441528;28;20453;-42
2023/07/25 18:36:14;;;;;;;1.95;0.70;;;24.60;54.30;;;;;;10441356;28;20063;-41
2023/07/25 18:41:17;;;;;;;2.25;0.63;;;24.90;55.20;;;;;;10432417;28;20111;-41
2023/07/25 18:46:19;;;;;;;1.23;0.45;;;24.80;54.90;;;;;;10434870;28;20128;-39
2023/07/25 18:51:21;;;;;;;1.17;0.60;;;25.90;52.70;;;;;;10442371;28;20042;-38
2023/07/25 18:56:24;;;;;;;2.97;0.38;;;24.50;54.60;;;;;;10432769;28;20045;-39
2023/07/25 19:01:26;;;;;;;2.13;0.77;;;25.00;55.30;;;;;;10429951;28;20056;-36
2023/07/25 19:06:28;;;;;;;;;;;22.30;56.70;;;;;;10435779;28;20103;-39
2023/07/25 19:11:31;;;;;;;6.13;1.05;;;22.80;57.90;;;;;;10452892;28;20024;-38
2023/07/25 19:16:33;;;;;;;13.88;1.60;;;23.60;55.00;;;;;;10439805;28;21371;-38
2023/07/25 19:21:35;;;;;;;10.73;1.90;;;26.10;54.40;;;;;;10430885;28;20046;-37
2023/07/25 19:26:38;;;;;;;3.83;0.85;;;25.50;54.70;;;;;;10432960;28;20531;-38
2023/07/25 19:31:40;;;;;;;4.88;1.50;;;25.70;54.80;;;;;;10437454;28;20045;-39
2023/07/25 19:36:42;;;;;;;;;;;23.90;58.00;;;;;;10439767;28;20049;-39
2023/07/25 19:41:45;;;;;;;2.42;0.95;;;25.50;54.20;;;;;;10431073;28;19931;-39
2023/07/25 19:46:47;;;;;;;3.65;0.73;;;25.00;53.40;;;;;;10435555;28;20053;-38
2023/07/25 19:51:49;;;;;;;;;;;23.50;57.50;;;;;;10444855;28;20045;-37
2023/07/25 19:56:52;;;;;;;5.60;0.65;;;25.00;56.70;;;;;;10444423;28;20039;-39
2023/07/25 20:01:54;;;;;;;1.65;0.63;;;26.00;53.50;;;;;;10437815;28;20056;-37
2023/07/25 20:06:56;;;;;;;5.50;1.25;;;25.60;55.30;;;;;;10452343;28;20048;-37
2023/07/25 20:11:59;;;;;;;3.40;1.00;;;24.40;57.60;;;;;;10442716;28;20053;-38
2023/07/25 20:17:01;;;;;;;3.10;0.82;;;25.20;55.40;;;;;;10436688;28;20053;-38
2023/07/25 20:22:03;;;;;;;6.03;1.00;;;23.70;57.70;;;;;;10431996;28;20081;-36
2023/07/25 20:27:06;;;;;;;3.50;0.80;;;23.50;59.50;;;;;;10435629;28;20044;-37
2023/07/25 20:32:09;;;;;;;2.85;0.80;;;25.00;56.20;;;;;;10448443;28;20125;-38
2023/07/25 20:37:11;;;;;;;2.17;0.90;;;24.30;58.70;;;;;;10440088;28;20106;-39
2023/07/25 20:42:14;;;;;;;;;;;23.00;60.60;;;;;;10439093;28;20480;-38
2023/07/25 20:47:16;;;;;;;1.83;0.88;;;24.80;56.70;;;;;;10434388;28;19970;-38
2023/07/25 20:52:18;;;;;;;1.23;0.60;;;25.10;54.80;;;;;;10441666;28;20048;-37
2023/07/25 20:57:21;;;;;;;2.58;0.60;;;24.50;57.30;;;;;;10443077;28;20152;-37
2023/07/25 21:02:23;;;;;;;8.85;1.70;;;23.60;58.50;;;;;;10437802;28;20538;-37
2023/07/25 21:07:26;;;;;;;3.45;0.98;;;25.20;56.60;;;;;;10439158;28;20061;-37
2023/07/25 21:12:29;;;;;;;4.22;1.10;;;24.70;55.80;;;;;;10439798;28;20131;-36
2023/07/25 21:17:31;;;;;;;6.70;1.08;;;23.50;60.50;;;;;;10452423;28;20051;-38
2023/07/25 21:22:33;;;;;;;;;;;22.30;65.50;;;;;;10447442;28;20052;-38
2023/07/25 21:27:36;;;;;;;1.77;0.90;;;22.40;62.30;;;;;;10445945;28;20284;-35
2023/07/25 21:32:38;;;;;;;1.60;0.75;;;23.20;62.20;;;;;;10436786;28;20628;-37
2023/07/25 21:37:40;;;;;;;;;;;23.50;58.30;;;;;;10438685;28;20052;-37
2023/07/25 21:42:43;;;;;;;2.58;0.65;;;23.70;60.20;;;;;;10435451;28;19921;-38
2023/07/25 21:47:48;;;;;;;1.30;0.60;;;22.30;62.80;;;;;;10431844;28;20091;-38
2023/07/25 21:52:50;;;;;;;3.55;0.90;;;24.70;57.40;;;;;;10440768;28;20433;-37
2023/07/25 21:57:53;;;;;;;1.90;0.52;;;21.50;65.10;;;;;;10434249;28;20567;-36
2023/07/25 22:02:55;;;;;;;1.63;0.88;;;23.40;60.20;;;;;;10428936;28;20136;-38
2023/07/25 22:07:57;;;;;;;;;;;23.90;57.40;;;;;;10427076;28;20300;-38
2023/07/25 22:13:00;;;;;;;0.98;0.60;;;23.70;55.00;;;;;;10438696;28;19924;-38
2023/07/25 22:18:02;;;;;;;1.98;0.70;;;23.80;56.10;;;;;;10445155;28;20428;-37
2023/07/25 22:23:04;;;;;;;3.83;0.90;;;23.40;57.30;;;;;;10432608;28;20041;-38
2023/07/25 22:28:07;;;;;;;;;;;23.90;59.90;;;;;;10444840;28;20157;-37
2023/07/25 22:33:09;;;;;;;1.55;0.50;;;23.70;55.90;;;;;;10441414;28;19935;-37
2023/07/25 22:38:11;;;;;;;;;;;24.20;57.10;;;;;;10452279;28;20056;-38
2023/07/25 22:43:15;;;;;;;2.80;0.75;;;24.00;58.00;;;;;;10437039;28;20560;-37
2023/07/25 22:48:16;;;;;;;4.20;0.52;;;24.40;57.70;;;;;;10437223;28;20053;-37
2023/07/25 22:53:18;;;;;;;2.08;0.60;;;25.30;55.90;;;;;;10442817;28;20766;-37
2023/07/25 22:58:22;;;;;;;1.13;0.38;;;25.30;55.60;;;;;;10440082;28;20098;-38
2023/07/25 23:03:23;;;;;;;2.42;0.80;;;25.00;56.20;;;;;;10451196;28;20508;-38
2023/07/25 23:08:25;;;;;;;1.45;0.43;;;25.60;54.90;;;;;;10446809;28;20379;-39
2023/07/25 23:13:29;;;;;;;0.98;0.47;;;24.50;55.90;;;;;;10447283;28;20456;-37
2023/07/25 23:18:31;;;;;;;1.27;0.60;;;24.80;56.60;;;;;;10453089;28;20552;-40
2023/07/25 23:23:32;;;;;;;1.23;0.60;;;25.60;55.00;;;;;;10442809;28;20531;-39
2023/07/25 23:28:36;;;;;;;3.95;0.95;;;24.90;55.40;;;;;;10447488;28;20045;-37
2023/07/25 23:33:37;;;;;;;2.30;0.88;;;24.40;57.20;;;;;;10463237;28;20072;-39
2023/07/25 23:38:39;;;;;;;1.98;0.90;;;24.50;55.60;;;;;;10453709;28;20155;-38
2023/07/25 23:43:43;;;;;;;0.98;0.60;;;24.50;57.70;;;;;;10449330;28;20445;-36
2023/07/25 23:48:45;;;;;;;1.48;0.80;;;24.50;57.30;;;;;;10454279;28;20041;-38
2023/07/25 23:53:47;;;;;;;2.92;0.70;;;25.00;55.40;;;;;;10445725;28;20754;-38
2023/07/25 23:58:50;;;;;;;;;;;24.70;56.00;;;;;;10451442;28;20045;-38
